createdAt,value
2017-12-29T00:00:40.611Z,85.1
2017-12-29T00:01:44.366Z,84.9
2017-12-29T00:02:51.832Z,84.9
2017-12-29T00:03:56.060Z,85.1
2017-12-29T00:05:01.122Z,85.2
2017-12-29T00:06:05.779Z,85.1
2017-12-29T00:07:10.518Z,85.7
2017-12-29T00:08:14.951Z,84.7
2017-12-29T00:09:18.702Z,84.8
2017-12-29T00:10:22.356Z,85.2
2017-12-29T00:11:28.413Z,85.6
2017-12-29T00:12:33.898Z,85.3
2017-12-29T00:13:42.700Z,85.9
2017-12-29T00:14:48.263Z,85.6
2017-12-29T00:15:53.521Z,85.9
2017-12-29T00:16:57.505Z,85.9
2017-12-29T00:18:01.760Z,85.9
2017-12-29T00:19:08.023Z,85.9
2017-12-29T00:20:13.251Z,86.3
2017-12-29T00:21:19.754Z,85.9
2017-12-29T00:22:25.739Z,85.7
2017-12-29T00:23:32.456Z,86
2017-12-29T00:24:49.361Z,85.5
2017-12-29T00:25:56.052Z,85.6
2017-12-29T00:27:05.245Z,85.7
2017-12-29T00:28:12.141Z,85.5
2017-12-29T00:29:19.521Z,85.6
2017-12-29T00:30:26.550Z,85.6
2017-12-29T00:31:43.226Z,85.6
2017-12-29T00:32:48.088Z,85
2017-12-29T00:33:56.378Z,85.4
2017-12-29T00:35:00.764Z,85.2
2017-12-29T00:36:13.829Z,85.1
2017-12-29T00:37:20.947Z,85.3
2017-12-29T00:38:28.546Z,85.6
2017-12-29T00:39:36.212Z,85.3
2017-12-29T00:40:40.930Z,85
2017-12-29T00:41:45.503Z,85.1
2017-12-29T00:42:50.963Z,85.1
2017-12-29T00:43:56.751Z,84.9
2017-12-29T00:45:00.051Z,84.8
2017-12-29T00:46:06.918Z,84.4
2017-12-29T00:47:23.248Z,84.4
2017-12-29T00:48:28.044Z,84.7
2017-12-29T00:49:35.346Z,84.2
2017-12-29T00:50:41.928Z,84.5
2017-12-29T00:51:48.819Z,84.3
2017-12-29T00:52:54.517Z,84.3
2017-12-29T00:54:02.133Z,84.4
2017-12-29T00:55:12.162Z,84
2017-12-29T00:56:18.953Z,84.1
2017-12-29T00:57:25.217Z,84.1
2017-12-29T00:58:39.014Z,84.3
2017-12-29T00:59:45.473Z,83.9
2017-12-29T01:00:52.791Z,83.7
2017-12-29T01:02:00.574Z,83.3
2017-12-29T01:03:08.731Z,83.3
2017-12-29T01:04:16.086Z,83.2
2017-12-29T01:05:26.173Z,82.9
2017-12-29T01:06:31.659Z,82.9
2017-12-29T01:07:35.187Z,82.8
2017-12-29T01:08:38.612Z,83.2
2017-12-29T01:09:45.668Z,83.1
2017-12-29T01:10:49.884Z,82.5
2017-12-29T01:11:54.159Z,82.5
2017-12-29T01:12:57.653Z,82.8
2017-12-29T01:14:01.186Z,82.3
2017-12-29T01:15:05.182Z,82.4
2017-12-29T01:16:08.743Z,82.1
2017-12-29T01:17:14.356Z,82.5
2017-12-29T01:18:19.200Z,82.6
2017-12-29T01:19:22.723Z,82.5
2017-12-29T01:20:29.519Z,82.1
2017-12-29T01:21:33.558Z,81.9
2017-12-29T01:22:38.586Z,82
2017-12-29T01:23:43.810Z,81.9
2017-12-29T01:24:48.500Z,81.4
2017-12-29T01:25:56.718Z,82.1
2017-12-29T01:27:00.766Z,81.7
2017-12-29T01:28:07.157Z,81.5
2017-12-29T01:29:12.103Z,81.2
2017-12-29T01:30:16.298Z,81.2
2017-12-29T01:31:27.044Z,81.5
2017-12-29T01:32:33.600Z,81
2017-12-29T01:33:38.489Z,81.5
2017-12-29T01:34:42.019Z,81.6
2017-12-29T01:35:49.699Z,81.3
2017-12-29T01:36:57.978Z,81.2
2017-12-29T01:38:01.388Z,81.4
2017-12-29T01:39:08.154Z,81.1
2017-12-29T01:40:15.034Z,81.5
2017-12-29T01:41:22.251Z,81.3
2017-12-29T01:42:35.393Z,80.9
2017-12-29T01:43:42.666Z,80.6
2017-12-29T01:44:53.812Z,80.9
2017-12-29T01:46:01.114Z,80.7
2017-12-29T01:47:07.242Z,80.8
2017-12-29T01:48:14.796Z,80.7
2017-12-29T01:49:23.112Z,80.8
2017-12-29T01:50:31.172Z,80.7
2017-12-29T01:51:35.968Z,80
2017-12-29T01:52:41.490Z,80.5
2017-12-29T01:53:56.200Z,80.7
2017-12-29T01:55:02.065Z,80.4
2017-12-29T01:56:07.445Z,80.6
2017-12-29T01:57:10.984Z,80.6
2017-12-29T01:58:16.353Z,80.3
2017-12-29T01:59:24.295Z,80.4
2017-12-29T02:00:31.358Z,80.6
2017-12-29T02:01:37.252Z,80.4
2017-12-29T02:02:42.569Z,80.1
2017-12-29T02:03:50.257Z,79.8
2017-12-29T02:05:01.259Z,80.7
2017-12-29T02:06:07.285Z,80.3
2017-12-29T02:07:14.442Z,80
2017-12-29T02:08:24.551Z,80
2017-12-29T02:09:32.035Z,80.3
2017-12-29T02:10:39.539Z,80.4
2017-12-29T02:11:48.790Z,80
2017-12-29T02:12:55.071Z,80.5
2017-12-29T02:13:58.516Z,80.6
2017-12-29T02:15:02.530Z,80.1
2017-12-29T02:16:09.557Z,80.1
2017-12-29T02:17:13.138Z,80.3
2017-12-29T02:18:16.549Z,80.6
2017-12-29T02:19:19.978Z,80.6
2017-12-29T02:20:23.963Z,80.6
2017-12-29T02:21:27.297Z,80.4
2017-12-29T02:22:31.700Z,80.2
2017-12-29T02:23:35.119Z,80
2017-12-29T02:24:39.882Z,80.2
2017-12-29T02:25:45.848Z,80.3
2017-12-29T02:26:54.752Z,80
2017-12-29T02:28:00.200Z,80.1
2017-12-29T02:29:05.799Z,80.1
2017-12-29T02:30:11.375Z,80.2
2017-12-29T02:31:17.217Z,80.4
2017-12-29T02:32:21.323Z,80.2
2017-12-29T02:33:29.480Z,80
2017-12-29T02:34:36.125Z,80.1
2017-12-29T02:35:41.587Z,79.9
2017-12-29T02:36:47.670Z,79.8
2017-12-29T02:37:54.406Z,80
2017-12-29T02:39:02.435Z,80.1
2017-12-29T02:40:05.942Z,80.2
2017-12-29T02:41:10.973Z,80.1
2017-12-29T02:42:16.647Z,80
2017-12-29T02:43:20.053Z,80.2
2017-12-29T02:44:23.453Z,80.1
2017-12-29T02:45:29.248Z,80.2
2017-12-29T02:46:32.668Z,80.3
2017-12-29T02:47:35.902Z,79.9
2017-12-29T02:48:43.530Z,79.7
2017-12-29T02:49:46.961Z,79.7
2017-12-29T02:50:54.869Z,79.7
2017-12-29T02:52:00.187Z,79.8
2017-12-29T02:53:06.680Z,80
2017-12-29T02:54:11.281Z,79.8
2017-12-29T02:55:15.302Z,79.3
2017-12-29T02:56:19.398Z,79.6
2017-12-29T02:57:24.369Z,79.3
2017-12-29T02:58:29.904Z,79.1
2017-12-29T02:59:37.190Z,79.2
2017-12-29T03:00:41.969Z,78.9
2017-12-29T03:01:49.270Z,78.6
2017-12-29T03:02:53.176Z,79
2017-12-29T03:04:03.955Z,78.7
2017-12-29T03:05:09.726Z,78.8
2017-12-29T03:06:13.176Z,78.7
2017-12-29T03:07:20.716Z,78.5
2017-12-29T03:08:27.066Z,79.1
2017-12-29T03:09:31.735Z,79.1
2017-12-29T03:10:43.352Z,78.6
2017-12-29T03:11:49.054Z,78.6
2017-12-29T03:12:58.523Z,78.7
2017-12-29T03:14:02.588Z,78.5
2017-12-29T03:15:08.646Z,78.9
2017-12-29T03:16:15.433Z,78.3
2017-12-29T03:17:25.724Z,78.9
2017-12-29T03:18:30.813Z,78.9
2017-12-29T03:19:36.440Z,78.6
2017-12-29T03:20:39.815Z,78.1
2017-12-29T03:21:46.703Z,78.2
2017-12-29T03:22:50.190Z,78.2
2017-12-29T03:23:54.606Z,78.3
2017-12-29T03:24:57.969Z,78.7
2017-12-29T03:26:01.444Z,78.5
2017-12-29T03:27:04.800Z,78.5
2017-12-29T03:28:08.532Z,78.4
2017-12-29T03:29:12.005Z,78.6
2017-12-29T03:30:17.271Z,78.5
2017-12-29T03:31:21.413Z,78.1
2017-12-29T03:32:28.419Z,77.9
2017-12-29T03:33:31.870Z,78.2
2017-12-29T03:34:36.552Z,78.5
2017-12-29T03:35:39.880Z,78.2
2017-12-29T03:36:46.101Z,78
2017-12-29T03:37:51.289Z,78.2
2017-12-29T03:38:58.154Z,78.2
2017-12-29T03:40:03.176Z,78.1
2017-12-29T03:41:06.441Z,78.1
2017-12-29T03:42:11.397Z,78
2017-12-29T03:43:19.604Z,78.1
2017-12-29T03:44:26.894Z,78.2
2017-12-29T03:45:33.178Z,78
2017-12-29T03:46:39.155Z,78.3
2017-12-29T03:47:44.590Z,78.4
2017-12-29T03:48:48.343Z,78.7
2017-12-29T03:49:53.719Z,78.6
2017-12-29T03:51:01.513Z,78.4
2017-12-29T03:52:10.725Z,78.6
2017-12-29T03:53:18.379Z,78.6
2017-12-29T03:54:30.828Z,78.3
2017-12-29T03:55:35.182Z,78.6
2017-12-29T03:56:38.578Z,78.6
2017-12-29T03:57:45.061Z,78.5
2017-12-29T03:58:48.535Z,78.6
2017-12-29T03:59:54.653Z,78.7
2017-12-29T04:01:00.069Z,78.7
2017-12-29T04:02:05.621Z,78.5
2017-12-29T04:03:15.602Z,78.1
2017-12-29T04:04:21.559Z,78
2017-12-29T04:05:35.393Z,78.2
2017-12-29T04:06:43.242Z,78.1
2017-12-29T04:07:48.283Z,78.1
2017-12-29T04:08:53.649Z,78.3
2017-12-29T04:09:57.200Z,78.1
2017-12-29T04:11:03.585Z,78.5
2017-12-29T04:12:12.974Z,78.5
2017-12-29T04:13:19.709Z,78.2
2017-12-29T04:14:27.828Z,78.2
2017-12-29T04:15:34.318Z,78.1
2017-12-29T04:16:50.971Z,77.8
2017-12-29T04:17:57.725Z,77.1
2017-12-29T04:19:03.061Z,77.3
2017-12-29T04:20:09.062Z,77.7
2017-12-29T04:21:14.967Z,77.9
2017-12-29T04:22:21.389Z,77.8
2017-12-29T04:23:27.581Z,77.8
2017-12-29T04:24:31.020Z,77.7
2017-12-29T04:25:40.296Z,77.8
2017-12-29T04:26:44.243Z,77.7
2017-12-29T04:27:51.814Z,78
2017-12-29T04:28:55.207Z,77.9
2017-12-29T04:29:58.652Z,77.7
2017-12-29T04:31:02.645Z,77.6
2017-12-29T04:32:06.034Z,77.3
2017-12-29T04:33:12.101Z,77
2017-12-29T04:34:16.136Z,77.1
2017-12-29T04:35:19.552Z,77.1
2017-12-29T04:36:22.889Z,77.4
2017-12-29T04:37:26.377Z,77.1
2017-12-29T04:38:34.161Z,77.4
2017-12-29T04:39:37.676Z,77.4
2017-12-29T04:40:44.042Z,77.4
2017-12-29T04:41:47.510Z,77.5
2017-12-29T04:42:52.031Z,77.5
2017-12-29T04:43:59.561Z,77.3
2017-12-29T04:45:06.786Z,77.2
2017-12-29T04:46:16.049Z,77.5
2017-12-29T04:47:23.455Z,77.5
2017-12-29T04:48:33.010Z,77.3
2017-12-29T04:49:48.006Z,77.8
2017-12-29T04:50:55.714Z,77.9
2017-12-29T04:52:04.762Z,78
2017-12-29T04:53:10.407Z,77.9
2017-12-29T04:54:13.695Z,77.5
2017-12-29T04:55:19.839Z,77
2017-12-29T04:56:28.890Z,77.3
2017-12-29T04:57:33.488Z,77.5
2017-12-29T04:58:39.149Z,77.9
2017-12-29T04:59:44.728Z,78.3
2017-12-29T05:00:55.976Z,78.6
2017-12-29T05:02:02.866Z,78
2017-12-29T05:03:08.601Z,77.4
2017-12-29T05:04:16.468Z,77.2
2017-12-29T05:05:24.656Z,77.1
2017-12-29T05:06:32.021Z,77
2017-12-29T05:07:39.026Z,77
2017-12-29T05:08:45.041Z,77
2017-12-29T05:09:51.473Z,77.1
2017-12-29T05:10:59.899Z,77.8
2017-12-29T05:12:11.735Z,77.7
2017-12-29T05:13:17.364Z,78.1
2017-12-29T05:14:25.002Z,78.3
2017-12-29T05:15:34.017Z,78.4
2017-12-29T05:16:39.142Z,79
2017-12-29T05:17:44.638Z,79.2
2017-12-29T05:18:53.176Z,79.5
2017-12-29T05:19:58.630Z,79.9
2017-12-29T05:21:06.373Z,80
2017-12-29T05:22:14.099Z,80
2017-12-29T05:23:25.824Z,79.9
2017-12-29T05:24:32.129Z,80.1
2017-12-29T05:25:38.334Z,80.4
2017-12-29T05:26:46.571Z,80.2
2017-12-29T05:27:51.256Z,80.4
2017-12-29T05:29:02.636Z,80.6
2017-12-29T05:30:09.241Z,80.8
2017-12-29T05:31:17.492Z,80.8
2017-12-29T05:32:25.864Z,81.1
2017-12-29T05:33:31.106Z,81.3
2017-12-29T05:34:39.084Z,81.5
2017-12-29T05:35:42.697Z,81.5
2017-12-29T05:36:47.868Z,81.4
2017-12-29T05:37:51.908Z,81.3
2017-12-29T05:38:56.205Z,81.4
2017-12-29T05:39:59.615Z,81.7
2017-12-29T05:41:03.260Z,81.8
2017-12-29T05:42:08.033Z,82.1
2017-12-29T05:43:12.384Z,82.1
2017-12-29T05:44:16.076Z,82.2
2017-12-29T05:45:25.109Z,82.2
2017-12-29T05:46:28.243Z,82.3
2017-12-29T05:47:31.740Z,82.3
2017-12-29T05:48:36.178Z,82.4
2017-12-29T05:49:39.597Z,82.4
2017-12-29T05:50:43.134Z,82.3
2017-12-29T05:51:47.068Z,82.6
2017-12-29T05:52:51.090Z,82.7
2017-12-29T05:53:55.856Z,82.9
2017-12-29T05:55:00.154Z,82.9
2017-12-29T05:56:08.988Z,82.9
2017-12-29T05:57:13.649Z,83
2017-12-29T05:58:20.071Z,83
2017-12-29T05:59:24.261Z,83.1
2017-12-29T06:00:28.204Z,83.3
2017-12-29T06:01:32.794Z,83.1
2017-12-29T06:02:37.681Z,83.1
2017-12-29T06:03:43.079Z,83.3
2017-12-29T06:04:50.171Z,83.4
2017-12-29T06:05:57.945Z,83.3
2017-12-29T06:07:11.605Z,83.2
2017-12-29T06:08:18.879Z,83.4
2017-12-29T06:09:24.815Z,83
2017-12-29T06:10:31.352Z,83.1
2017-12-29T06:11:38.167Z,83.1
2017-12-29T06:12:44.951Z,83.1
2017-12-29T06:13:48.450Z,83.1
2017-12-29T06:14:54.557Z,83
2017-12-29T06:15:59.185Z,82.9
2017-12-29T06:17:05.439Z,83
2017-12-29T06:18:15.102Z,83.2
2017-12-29T06:19:22.036Z,83.4
2017-12-29T06:20:28.217Z,83.6
2017-12-29T06:21:32.786Z,83.4
2017-12-29T06:22:40.032Z,83.4
2017-12-29T06:23:46.190Z,83.2
2017-12-29T06:24:52.126Z,83.2
2017-12-29T06:25:57.849Z,83.2
2017-12-29T06:27:02.194Z,83.2
2017-12-29T06:28:05.660Z,83
2017-12-29T06:29:13.475Z,83.1
2017-12-29T06:30:17.851Z,83
2017-12-29T06:31:21.398Z,82.9
2017-12-29T06:32:28.073Z,82.7
2017-12-29T06:33:31.597Z,82.9
2017-12-29T06:34:39.516Z,82.8
2017-12-29T06:35:45.578Z,82.7
2017-12-29T06:36:52.109Z,83.3
2017-12-29T06:37:56.227Z,82.5
2017-12-29T06:39:04.886Z,82.5
2017-12-29T06:40:13.595Z,82.5
2017-12-29T06:41:17.325Z,82.4
2017-12-29T06:42:21.886Z,82.4
2017-12-29T06:43:25.292Z,82.5
2017-12-29T06:44:30.812Z,82.5
2017-12-29T06:45:34.324Z,82.6
2017-12-29T06:46:40.143Z,82.8
2017-12-29T06:47:43.590Z,82.8
2017-12-29T06:48:50.412Z,82.8
2017-12-29T06:49:53.988Z,83
2017-12-29T06:51:03.085Z,83
2017-12-29T06:52:09.578Z,83
2017-12-29T06:53:17.266Z,83
2017-12-29T06:54:22.051Z,82.8
2017-12-29T06:55:26.748Z,82.8
2017-12-29T06:56:33.394Z,83.1
2017-12-29T06:57:37.467Z,82.9
2017-12-29T06:58:52.411Z,83
2017-12-29T06:59:58.506Z,82.9
2017-12-29T07:01:03.736Z,82.7
2017-12-29T07:02:12.045Z,82.8
2017-12-29T07:03:15.632Z,83.1
2017-12-29T07:04:19.765Z,83.3
2017-12-29T07:05:24.226Z,83.1
2017-12-29T07:06:27.820Z,83.3
2017-12-29T07:07:36.141Z,83.2
2017-12-29T07:08:44.947Z,83.1
2017-12-29T07:09:49.659Z,82.9
2017-12-29T07:10:53.868Z,82.8
2017-12-29T07:12:01.837Z,82.7
2017-12-29T07:13:13.484Z,82.7
2017-12-29T07:14:21.917Z,82.7
2017-12-29T07:15:27.492Z,82.6
2017-12-29T07:16:33.815Z,82.8
2017-12-29T07:17:37.942Z,83
2017-12-29T07:18:44.424Z,82.7
2017-12-29T07:19:48.763Z,82.6
2017-12-29T07:20:57.383Z,82.5
2017-12-29T07:22:04.488Z,82.5
2017-12-29T07:23:08.088Z,82.6
2017-12-29T07:24:19.275Z,82.6
2017-12-29T07:25:23.378Z,82.6
2017-12-29T07:26:26.746Z,82.8
2017-12-29T07:27:32.437Z,82.5
2017-12-29T07:28:35.929Z,82.6
2017-12-29T07:29:42.189Z,82.6
2017-12-29T07:30:47.422Z,82.5
2017-12-29T07:31:54.836Z,82.8
2017-12-29T07:32:58.922Z,82.9
2017-12-29T07:34:05.865Z,83
2017-12-29T07:35:14.315Z,82.9
2017-12-29T07:36:17.941Z,82.8
2017-12-29T07:37:21.457Z,82.7
2017-12-29T07:38:27.292Z,82.5
2017-12-29T07:39:30.869Z,82.5
2017-12-29T07:40:34.228Z,82.6
2017-12-29T07:41:39.804Z,82.3
2017-12-29T07:42:48.394Z,82.3
2017-12-29T07:43:59.473Z,82
2017-12-29T07:45:04.904Z,82.2
2017-12-29T07:46:15.912Z,82
2017-12-29T07:47:20.459Z,81.9
2017-12-29T07:48:31.154Z,81.8
2017-12-29T07:49:39.332Z,81.7
2017-12-29T07:50:43.645Z,81.4
2017-12-29T07:51:49.856Z,81.4
2017-12-29T07:52:54.669Z,81.8
2017-12-29T07:54:00.139Z,81.6
2017-12-29T07:55:06.282Z,81.3
2017-12-29T07:56:09.829Z,81.5
2017-12-29T07:57:18.067Z,81.2
2017-12-29T07:58:31.215Z,81.4
2017-12-29T07:59:37.743Z,81.3
2017-12-29T08:00:41.107Z,81.1
2017-12-29T08:01:46.716Z,80.7
2017-12-29T08:02:50.923Z,80.6
2017-12-29T08:03:54.368Z,80.6
2017-12-29T08:04:58.718Z,80.7
2017-12-29T08:06:02.182Z,80.7
2017-12-29T08:07:06.940Z,80.9
2017-12-29T08:08:14.783Z,80.9
2017-12-29T08:09:20.343Z,81.1
2017-12-29T08:10:24.447Z,80.4
2017-12-29T08:11:27.926Z,80.7
2017-12-29T08:12:31.350Z,80.9
2017-12-29T08:13:34.409Z,81.4
2017-12-29T08:14:37.828Z,81.9
2017-12-29T08:15:41.165Z,82.1
2017-12-29T08:16:44.613Z,82.2
2017-12-29T08:17:47.981Z,82.2
2017-12-29T08:18:55.007Z,81.5
2017-12-29T08:19:58.399Z,81.7
2017-12-29T08:21:01.826Z,81.9
2017-12-29T08:22:05.347Z,81.4
2017-12-29T08:23:08.827Z,81.8
2017-12-29T08:24:12.221Z,81.8
2017-12-29T08:25:15.694Z,81.8
2017-12-29T08:26:19.109Z,82.2
2017-12-29T08:27:22.576Z,82
2017-12-29T08:28:26.914Z,82.1
2017-12-29T08:29:33.122Z,81.6
2017-12-29T08:30:47.399Z,81.2
2017-12-29T08:31:50.821Z,81
2017-12-29T08:32:56.968Z,80.6
2017-12-29T08:34:01.126Z,80.2
2017-12-29T08:35:07.347Z,80.1
2017-12-29T08:36:10.946Z,80
2017-12-29T08:37:15.207Z,80
2017-12-29T08:38:18.629Z,79.7
2017-12-29T08:39:21.921Z,79.9
2017-12-29T08:40:30.200Z,79.5
2017-12-29T08:41:36.190Z,79.7
2017-12-29T08:42:41.876Z,79.8
2017-12-29T08:43:56.801Z,79.1
2017-12-29T08:45:20.110Z,79.2
2017-12-29T08:46:26.500Z,79.5
2017-12-29T08:47:30.226Z,78.9
2017-12-29T08:48:34.993Z,78.9
2017-12-29T08:49:39.432Z,79.3
2017-12-29T08:50:54.270Z,79.2
2017-12-29T08:52:23.013Z,79.3
2017-12-29T08:53:26.557Z,78.9
2017-12-29T08:54:30.599Z,79.2
2017-12-29T08:55:37.941Z,78.7
2017-12-29T08:56:42.150Z,78.5
2017-12-29T08:57:57.496Z,78.9
2017-12-29T08:59:03.958Z,78.3
2017-12-29T09:00:07.411Z,78.1
2017-12-29T09:01:11.264Z,78.3
2017-12-29T09:02:14.700Z,78.1
2017-12-29T09:03:23.214Z,78.4
2017-12-29T09:04:27.244Z,77.6
2017-12-29T09:05:32.052Z,77.3
2017-12-29T09:06:37.648Z,77
2017-12-29T09:07:42.691Z,76.9
2017-12-29T09:08:46.976Z,76.9
2017-12-29T09:09:52.995Z,76.6
2017-12-29T09:10:58.882Z,76.9
2017-12-29T09:12:04.364Z,76.4
2017-12-29T09:13:07.790Z,76.9
2017-12-29T09:14:20.563Z,77
2017-12-29T09:15:29.912Z,76
2017-12-29T09:16:37.752Z,75.5
2017-12-29T09:17:42.521Z,74.8
2017-12-29T09:18:47.711Z,76.2
2017-12-29T09:19:53.656Z,77.2
2017-12-29T09:20:59.077Z,77.6
2017-12-29T09:22:04.670Z,77.7
2017-12-29T09:23:10.659Z,76.8
2017-12-29T09:24:16.574Z,76.4
2017-12-29T09:25:27.373Z,75.6
2017-12-29T09:26:35.363Z,75.8
2017-12-29T09:27:44.138Z,75.6
2017-12-29T09:28:48.597Z,75.4
2017-12-29T09:29:53.548Z,74.9
2017-12-29T09:30:58.747Z,74.8
2017-12-29T09:32:03.672Z,75
2017-12-29T09:33:09.514Z,74.8
2017-12-29T09:34:14.552Z,74.3
2017-12-29T09:35:19.581Z,74.3
2017-12-29T09:36:30.075Z,74.7
2017-12-29T09:37:36.215Z,73.8
2017-12-29T09:38:44.193Z,73.8
2017-12-29T09:39:52.391Z,74.3
2017-12-29T09:40:55.939Z,73.7
2017-12-29T09:42:02.109Z,74.2
2017-12-29T09:43:05.515Z,73.2
2017-12-29T09:44:14.112Z,73.1
2017-12-29T09:45:22.261Z,72.2
2017-12-29T09:46:32.681Z,72.3
2017-12-29T09:47:50.324Z,73
2017-12-29T09:49:00.501Z,72.8
2017-12-29T09:50:09.184Z,72.2
2017-12-29T09:51:16.152Z,72.2
2017-12-29T09:52:22.256Z,71.6
2017-12-29T09:53:32.541Z,71.9
2017-12-29T09:54:39.667Z,71.5
2017-12-29T09:55:48.732Z,71.4
2017-12-29T09:56:54.216Z,71.5
2017-12-29T09:58:00.337Z,70.9
2017-12-29T09:59:15.789Z,70
2017-12-29T14:07:16.574Z,63
2017-12-29T14:31:04.366Z,69.4
2017-12-29T14:32:15.379Z,69.5
2017-12-29T14:33:27.496Z,69.4
2017-12-29T14:34:35.893Z,66.9
2017-12-29T14:35:41.550Z,67.1
2017-12-29T14:36:51.258Z,66.1
2017-12-29T14:37:59.028Z,66.2
2017-12-29T14:39:16.406Z,67.2
2017-12-29T14:40:25.421Z,67.1
2017-12-29T14:41:38.234Z,68
2017-12-29T14:42:47.471Z,68.7
2017-12-29T14:43:56.086Z,67.8
2017-12-29T14:45:05.422Z,67.7
2017-12-29T14:46:11.044Z,67.6
2017-12-29T14:47:16.594Z,66.3
2017-12-29T14:48:27.063Z,65.9
2017-12-29T14:49:39.640Z,66.6
2017-12-29T14:50:54.993Z,66.9
2017-12-29T14:52:01.420Z,66.8
2017-12-29T14:53:09.314Z,67.2
2017-12-29T14:54:21.106Z,66.4
2017-12-29T14:55:30.536Z,66.8
2017-12-29T14:56:39.930Z,67.9
2017-12-29T14:57:49.050Z,67.5
2017-12-29T14:58:59.126Z,67.4
2017-12-29T15:00:04.412Z,67.5
2017-12-29T15:01:13.625Z,67.8
2017-12-29T15:02:25.652Z,68.3
2017-12-29T15:03:31.004Z,67.6
2017-12-29T15:04:41.338Z,67.4
2017-12-29T15:05:48.107Z,68.6
2017-12-29T15:07:05.020Z,67.1
2017-12-29T15:08:11.386Z,67.1
2017-12-29T15:09:17.995Z,67
2017-12-29T15:10:24.620Z,67.5
2017-12-29T15:11:31.995Z,67.6
2017-12-29T15:12:38.632Z,67.9
2017-12-29T15:13:55.007Z,68
2017-12-29T15:15:07.970Z,67.6
2017-12-29T15:16:21.537Z,67.4
2017-12-29T15:17:31.956Z,67.8
2017-12-29T15:18:39.659Z,68.6
2017-12-29T15:19:50.644Z,68.4
2017-12-29T15:21:02.517Z,68.6
2017-12-29T15:22:11.090Z,69
2017-12-29T15:23:22.560Z,68.6
2017-12-29T15:24:31.820Z,68.8
